createdAt,value
2023-07-24T00:02:44.259Z,19.30
2023-07-24T00:07:47.604Z,19.40
2023-07-24T00:12:52.285Z,19.40
2023-07-24T00:17:55.761Z,19.40
2023-07-24T00:22:59.130Z,19.30
2023-07-24T00:28:03.909Z,19.20
2023-07-24T00:33:07.929Z,18.90
2023-07-24T00:38:11.243Z,19.30
2023-07-24T00:43:15.975Z,19.30
2023-07-24T00:48:19.479Z,19.30
2023-07-24T00:53:23.073Z,19.10
2023-07-24T00:58:28.899Z,19.30
2023-07-24T01:03:36.574Z,19.20
2023-07-24T01:08:40.846Z,19.10
2023-07-24T01:13:53.404Z,19.10
2023-07-24T01:18:59.276Z,19.00
2023-07-24T01:24:12.248Z,19.10
2023-07-24T01:29:17.015Z,19.00
2023-07-24T01:34:20.320Z,19.10
2023-07-24T01:39:23.858Z,19.00
2023-07-24T01:44:28.608Z,19.00
2023-07-24T01:49:31.995Z,19.10
2023-07-24T01:54:35.325Z,19.20
2023-07-24T01:59:40.059Z,19.20
2023-07-24T02:04:43.469Z,19.20
2023-07-24T02:09:48.075Z,19.10
2023-07-24T02:14:53.332Z,19.20
2023-07-24T02:19:56.835Z,19.10
2023-07-24T02:25:00.253Z,19.10
2023-07-24T02:30:05.834Z,18.90
2023-07-24T02:35:10.083Z,18.90
2023-07-24T02:40:14.375Z,19.10
2023-07-24T02:45:19.097Z,19.10
2023-07-24T02:50:22.417Z,19.10
2023-07-24T02:55:25.724Z,19.00
2023-07-24T03:00:30.425Z,19.10
2023-07-24T03:05:35.960Z,19.10
2023-07-24T03:10:42.626Z,19.00
2023-07-24T03:15:54.863Z,19.00
2023-07-24T03:21:00.509Z,19.10
2023-07-24T03:26:03.781Z,19.00
2023-07-24T03:31:08.589Z,19.00
2023-07-24T03:36:12.028Z,19.00
2023-07-24T03:41:15.355Z,18.90
2023-07-24T03:46:20.053Z,19.00
2023-07-24T03:51:23.351Z,18.90
2023-07-24T03:56:26.705Z,18.90
2023-07-24T04:01:31.429Z,18.80
2023-07-24T04:06:34.679Z,18.80
2023-07-24T04:11:39.427Z,18.80
2023-07-24T04:16:44.350Z,18.80
2023-07-24T04:21:47.630Z,19.30
2023-07-24T04:26:50.913Z,18.70
2023-07-24T04:31:55.704Z,18.60
2023-07-24T04:36:59.033Z,18.70
2023-07-24T04:42:02.326Z,18.60
2023-07-24T04:47:07.134Z,18.60
2023-07-24T04:52:10.447Z,18.60
2023-07-24T04:57:13.940Z,18.60
2023-07-24T05:02:18.743Z,18.70
2023-07-24T05:07:22.122Z,18.80
2023-07-24T05:12:25.421Z,18.90
2023-07-24T05:17:30.302Z,18.90
